createdAt,value
2022-10-02T00:01:47.806Z,4.78
2022-10-02T00:04:22.873Z,5.20
2022-10-02T00:06:53.173Z,5.35
2022-10-02T00:09:32.302Z,4.88
2022-10-02T00:12:01.524Z,5.68
2022-10-02T00:14:35.615Z,5.82
2022-10-02T00:17:03.988Z,5.45
2022-10-02T00:19:32.882Z,6.38
2022-10-02T00:22:23.829Z,5.22
2022-10-02T00:25:08.688Z,4.90
2022-10-02T00:27:59.305Z,5.35
2022-10-02T00:30:32.043Z,5.70
2022-10-02T00:33:24.541Z,5.53
2022-10-02T00:36:14.429Z,5.60
2022-10-02T00:39:06.162Z,5.97
2022-10-02T00:41:55.092Z,6.32
2022-10-02T00:44:39.774Z,6.07
2022-10-02T00:47:30.368Z,6.22
2022-10-02T00:50:02.231Z,5.70
2022-10-02T00:52:44.598Z,6.07
2022-10-02T00:55:57.710Z,5.35
2022-10-02T00:58:52.663Z,6.45
2022-10-02T01:01:37.382Z,7.38
2022-10-02T01:04:11.399Z,6.35
2022-10-02T01:06:40.974Z,6.00
2022-10-02T01:09:08.714Z,4.82
2022-10-02T01:11:38.671Z,5.28
2022-10-02T01:14:07.420Z,6.10
2022-10-02T01:16:36.157Z,5.72
2022-10-02T01:19:03.909Z,5.47
2022-10-02T01:21:50.290Z,10.52
2022-10-02T01:24:33.113Z,5.93
2022-10-02T01:27:00.705Z,6.88
2022-10-02T01:29:28.971Z,6.13
2022-10-02T01:31:56.957Z,6.13
2022-10-02T01:34:27.072Z,5.53
2022-10-02T01:36:54.963Z,6.75
2022-10-02T01:39:24.601Z,7.43
2022-10-02T01:41:52.347Z,7.03
2022-10-02T01:44:20.368Z,6.53
2022-10-02T01:47:06.260Z,6.35
2022-10-02T01:49:49.847Z,7.07
2022-10-02T01:52:49.914Z,7.30
2022-10-02T01:55:58.551Z,6.15
2022-10-02T01:58:33.836Z,5.85
2022-10-02T02:03:41.648Z,10.25
2022-10-02T02:06:22.110Z,7.68
2022-10-02T02:09:12.248Z,7.60
2022-10-02T02:11:50.251Z,7.80
2022-10-02T02:14:26.030Z,6.95
2022-10-02T02:17:09.659Z,7.15
2022-10-02T02:19:46.756Z,5.75
2022-10-02T02:22:21.419Z,7.30
2022-10-02T02:27:27.726Z,7.03
2022-10-02T02:30:00.449Z,6.63
2022-10-02T02:32:37.121Z,6.93
2022-10-02T02:35:12.356Z,6.75
2022-10-02T02:37:43.433Z,10.38
2022-10-02T02:40:24.435Z,6.60
2022-10-02T02:43:16.715Z,8.13
2022-10-02T02:45:50.627Z,6.22
2022-10-02T02:48:37.009Z,6.93
2022-10-02T02:51:12.051Z,6.30
2022-10-02T02:53:57.112Z,6.47
2022-10-02T02:56:29.763Z,6.22
2022-10-02T02:59:14.675Z,5.88
2022-10-02T03:01:42.778Z,10.10
2022-10-02T03:04:13.021Z,5.75
2022-10-02T03:06:47.355Z,6.78
2022-10-02T03:09:22.559Z,6.18
2022-10-02T03:12:05.180Z,6.15
2022-10-02T03:15:11.150Z,5.70
2022-10-02T03:17:57.244Z,7.22
2022-10-02T03:20:51.235Z,15.48
2022-10-02T03:23:36.678Z,5.45
2022-10-02T03:26:13.117Z,7.32
2022-10-02T03:28:56.613Z,5.60
2022-10-02T03:31:28.970Z,8.60
2022-10-02T03:33:58.848Z,6.30
2022-10-02T03:36:28.940Z,6.53
2022-10-02T03:39:25.995Z,7.22
2022-10-02T03:42:01.583Z,7.47
2022-10-02T03:44:31.253Z,8.60
2022-10-02T03:46:58.972Z,9.82
2022-10-02T03:49:26.369Z,8.10
2022-10-02T03:51:54.694Z,9.35
2022-10-02T03:54:24.057Z,7.68
2022-10-02T03:56:56.497Z,6.63
2022-10-02T03:59:52.512Z,6.53
2022-10-02T04:02:27.489Z,6.95
2022-10-02T04:05:26.835Z,7.63
2022-10-02T04:08:00.296Z,6.32
2022-10-02T04:10:55.443Z,8.23
2022-10-02T04:13:39.119Z,6.72
2022-10-02T04:16:38.157Z,9.30
2022-10-02T04:19:22.763Z,7.05
2022-10-02T04:22:03.145Z,9.43
2022-10-02T04:24:52.431Z,7.72
2022-10-02T04:28:12.512Z,6.72
2022-10-02T04:30:40.180Z,11.48
2022-10-02T04:33:18.141Z,7.13
2022-10-02T04:36:00.486Z,7.22
2022-10-02T04:38:37.734Z,6.88
2022-10-02T04:41:31.306Z,6.60
2022-10-02T04:44:01.198Z,7.05
2022-10-02T04:46:28.433Z,6.35
2022-10-02T04:49:11.677Z,8.13
2022-10-02T04:51:39.689Z,7.20
2022-10-02T04:54:43.175Z,6.35
2022-10-02T04:57:27.632Z,6.03
2022-10-02T05:00:07.267Z,8.88
2022-10-02T05:03:13.058Z,6.90
2022-10-02T05:06:01.803Z,6.15
2022-10-02T05:08:45.890Z,7.15
2022-10-02T05:11:48.585Z,7.68
2022-10-02T05:14:37.405Z,9.20
2022-10-02T05:17:28.995Z,6.40
2022-10-02T05:20:11.050Z,6.30
2022-10-02T05:23:15.953Z,7.35
2022-10-02T05:25:53.416Z,6.20
2022-10-02T05:28:51.123Z,5.88
2022-10-02T05:31:40.574Z,6.22
2022-10-02T05:34:18.493Z,5.60
2022-10-02T05:37:16.985Z,6.97
2022-10-02T05:40:17.185Z,9.18
2022-10-02T05:42:58.635Z,4.75
2022-10-02T05:45:52.554Z,6.43
2022-10-02T05:48:33.437Z,6.25
2022-10-02T05:51:10.284Z,4.93
2022-10-02T05:53:44.603Z,4.93
2022-10-02T05:56:18.258Z,4.93
2022-10-02T05:59:12.497Z,5.63
2022-10-02T06:01:47.724Z,4.93
2022-10-02T06:04:27.877Z,6.45
2022-10-02T06:06:59.275Z,6.13
2022-10-02T06:09:35.918Z,4.57
2022-10-02T06:12:12.479Z,5.53
2022-10-02T06:15:08.321Z,8.32
2022-10-02T06:18:06.490Z,8.27
2022-10-02T06:20:40.612Z,4.60
2022-10-02T06:23:34.932Z,4.45
2022-10-02T06:26:13.293Z,4.25
2022-10-02T06:28:50.488Z,6.38
2022-10-02T06:31:46.775Z,4.13
2022-10-02T06:34:17.596Z,4.00
2022-10-02T06:37:13.266Z,4.45
2022-10-02T06:39:48.716Z,5.28
2022-10-02T06:42:42.172Z,3.63
2022-10-02T06:45:23.848Z,5.68
2022-10-02T06:48:10.197Z,3.75
2022-10-02T06:50:54.434Z,3.40
2022-10-02T06:53:53.026Z,4.47
2022-10-02T06:56:46.141Z,3.40
2022-10-02T06:59:38.957Z,5.88
2022-10-02T07:02:26.495Z,4.65
2022-10-02T07:04:54.212Z,4.15
2022-10-02T07:07:30.110Z,3.03
2022-10-02T07:10:25.792Z,6.25
2022-10-02T07:13:16.343Z,3.28
2022-10-02T07:16:18.178Z,3.58
2022-10-02T07:18:53.714Z,4.20
2022-10-02T07:21:47.377Z,3.80
2022-10-02T07:24:21.189Z,4.72
2022-10-02T07:27:15.126Z,4.10
2022-10-02T07:29:47.675Z,6.60
2022-10-02T07:32:31.144Z,4.97
2022-10-02T07:35:12.316Z,3.67
2022-10-02T07:37:53.880Z,5.40
2022-10-02T07:40:43.734Z,3.28
2022-10-02T07:43:17.951Z,3.92
2022-10-02T07:46:09.761Z,3.75
2022-10-02T07:48:59.340Z,3.70
2022-10-02T07:51:49.845Z,3.70
2022-10-02T07:54:36.273Z,4.00
2022-10-02T07:57:37.233Z,4.90
2022-10-02T08:00:34.528Z,4.72
2022-10-02T08:03:16.839Z,3.95
2022-10-02T08:05:58.569Z,4.93
2022-10-02T08:09:01.132Z,3.22
2022-10-02T08:11:51.133Z,9.27
2022-10-02T08:14:29.060Z,21.50
2022-10-02T08:17:06.332Z,6.70
2022-10-02T08:19:45.527Z,7.05
2022-10-02T08:22:26.792Z,7.05
2022-10-02T08:25:02.316Z,4.70
2022-10-02T08:27:58.627Z,3.17
2022-10-02T08:30:27.628Z,4.15
2022-10-02T08:32:55.386Z,4.05
2022-10-02T08:35:33.022Z,3.53
2022-10-02T08:38:24.227Z,5.05
2022-10-02T08:40:53.570Z,2.80
2022-10-02T08:43:45.190Z,4.75
2022-10-02T08:46:56.397Z,3.67
2022-10-02T08:49:48.681Z,7.63
2022-10-02T08:52:53.572Z,4.22
2022-10-02T08:55:44.398Z,2.78
2022-10-02T08:58:35.312Z,3.25
2022-10-02T09:01:15.738Z,4.28
2022-10-02T09:04:23.166Z,3.78
2022-10-02T09:06:57.422Z,7.03
2022-10-02T09:09:43.425Z,3.78
2022-10-02T09:12:37.958Z,4.57
2022-10-02T09:15:23.228Z,2.58
2022-10-02T09:18:21.477Z,2.58
2022-10-02T09:21:38.592Z,5.53
2022-10-02T09:24:43.596Z,3.65
2022-10-02T09:27:27.710Z,2.33
2022-10-02T09:29:56.240Z,2.30
2022-10-02T09:33:01.935Z,3.00
2022-10-02T09:36:07.784Z,2.95
2022-10-02T09:38:54.245Z,2.53
2022-10-02T09:41:50.266Z,2.58
2022-10-02T09:44:34.532Z,3.20
2022-10-02T09:47:26.320Z,1.98
2022-10-02T09:50:13.851Z,2.08
2022-10-02T09:52:46.490Z,1.85
2022-10-02T09:55:45.692Z,1.70
2022-10-02T09:58:33.663Z,2.53
2022-10-02T10:01:16.476Z,2.10
2022-10-02T10:03:47.634Z,1.88
2022-10-02T10:06:27.137Z,1.30
2022-10-02T10:09:18.729Z,3.42
2022-10-02T10:12:00.779Z,2.53
2022-10-02T10:15:09.566Z,1.90
2022-10-02T10:18:08.299Z,1.20
2022-10-02T10:21:14.153Z,4.82
2022-10-02T10:24:08.422Z,4.93
2022-10-02T10:26:48.077Z,2.00
2022-10-02T10:29:33.925Z,2.88
2022-10-02T10:32:42.714Z,4.65
2022-10-02T10:35:28.242Z,1.98
2022-10-02T10:38:33.144Z,4.00
2022-10-02T10:41:12.901Z,0.93
2022-10-02T10:44:00.460Z,4.50
2022-10-02T10:46:53.744Z,1.48
2022-10-02T10:49:46.181Z,1.17
2022-10-02T10:52:41.915Z,1.90
2022-10-02T10:56:07.373Z,1.40
2022-10-02T10:58:51.263Z,2.22
2022-10-02T11:01:38.335Z,1.50
2022-10-02T11:04:40.314Z,1.33
2022-10-02T11:07:08.199Z,1.52
2022-10-02T11:09:50.948Z,1.55
2022-10-02T11:12:41.315Z,1.42
2022-10-02T11:15:08.800Z,1.35
2022-10-02T11:17:57.223Z,1.40
2022-10-02T11:20:37.720Z,2.60
2022-10-02T11:23:30.940Z,1.30
2022-10-02T11:26:26.640Z,1.45
2022-10-02T11:29:09.746Z,1.90
2022-10-02T11:32:06.359Z,1.30
2022-10-02T11:34:55.521Z,1.60
2022-10-02T11:37:45.246Z,1.65
2022-10-02T11:40:20.899Z,5.15
2022-10-02T11:43:02.157Z,2.10
2022-10-02T11:45:59.721Z,2.20
2022-10-02T11:48:47.326Z,2.60
2022-10-02T11:51:37.836Z,1.42
2022-10-02T11:54:40.870Z,1.48
2022-10-02T11:57:35.288Z,1.65
2022-10-02T12:00:31.845Z,2.13
2022-10-02T12:03:09.410Z,1.92
2022-10-02T12:05:55.350Z,2.03
2022-10-02T12:08:57.079Z,1.85
2022-10-02T12:12:20.603Z,1.75
2022-10-02T12:14:56.201Z,2.15
2022-10-02T12:17:49.889Z,2.25
2022-10-02T12:20:59.427Z,1.20
2022-10-02T12:23:48.073Z,1.67
2022-10-02T12:27:12.669Z,4.55
2022-10-02T12:30:01.445Z,1.40
2022-10-02T12:32:47.196Z,3.03
2022-10-02T12:35:47.883Z,3.50
2022-10-02T12:38:37.232Z,1.20
2022-10-02T12:41:25.322Z,3.38
2022-10-02T12:44:22.377Z,6.07
2022-10-02T12:47:12.826Z,1.30
2022-10-02T12:50:05.980Z,4.43
2022-10-02T12:53:06.352Z,1.52
2022-10-02T12:55:50.580Z,1.25
2022-10-02T12:58:27.229Z,1.70
2022-10-02T13:01:44.637Z,1.70
2022-10-02T13:04:39.232Z,1.63
2022-10-02T13:07:30.267Z,2.00
2022-10-02T13:10:03.862Z,4.53
2022-10-02T13:13:09.203Z,3.22
2022-10-02T13:16:21.639Z,2.08
2022-10-02T13:18:59.229Z,2.38
2022-10-02T13:21:38.992Z,3.25
2022-10-02T13:24:29.043Z,1.60
2022-10-02T13:27:17.105Z,2.45
2022-10-02T13:30:17.039Z,2.47
2022-10-02T13:33:06.266Z,2.83
2022-10-02T13:35:59.483Z,3.90
2022-10-02T13:38:36.112Z,2.15
2022-10-02T13:41:23.244Z,4.05
2022-10-02T13:44:03.442Z,4.63
2022-10-02T13:46:37.056Z,2.20
2022-10-02T13:49:36.655Z,2.23
2022-10-02T13:52:27.524Z,3.97
2022-10-02T13:55:24.605Z,2.33
2022-10-02T13:58:13.128Z,4.72
2022-10-02T14:01:18.303Z,7.32
2022-10-02T14:04:17.329Z,2.88
2022-10-02T14:07:05.541Z,2.88
2022-10-02T14:10:03.534Z,5.70
2022-10-02T14:12:58.834Z,4.20
2022-10-02T14:15:35.178Z,3.15
2022-10-02T14:18:37.237Z,4.00
2022-10-02T14:21:31.211Z,2.42
2022-10-02T14:24:47.794Z,4.33
2022-10-02T14:27:20.627Z,3.67
2022-10-02T14:30:07.291Z,2.63
2022-10-02T14:32:50.853Z,3.30
2022-10-02T14:36:03.633Z,3.10
2022-10-02T14:39:06.805Z,2.30
2022-10-02T14:42:16.782Z,2.97
2022-10-02T14:45:18.729Z,3.20
2022-10-02T14:48:25.711Z,8.07
2022-10-02T14:51:29.421Z,2.42
2022-10-02T14:54:49.815Z,2.47
2022-10-02T14:57:45.250Z,1.60
2022-10-02T15:00:21.684Z,3.08
2022-10-02T15:03:24.401Z,5.95
2022-10-02T15:06:18.871Z,7.05
2022-10-02T15:09:03.594Z,13.23
2022-10-02T15:12:07.540Z,12.20
2022-10-02T15:14:48.030Z,8.75
2022-10-02T15:17:46.068Z,7.30
2022-10-02T15:20:40.423Z,3.42
2022-10-02T15:23:12.821Z,4.07
2022-10-02T15:26:00.914Z,8.05
2022-10-02T15:28:49.924Z,3.75
2022-10-02T15:31:18.127Z,3.25
2022-10-02T15:34:22.234Z,4.10
2022-10-02T15:37:27.984Z,3.88
2022-10-02T15:43:14.545Z,5.38
2022-10-02T15:46:28.568Z,5.03
2022-10-02T15:49:11.018Z,5.70
2022-10-02T15:51:56.098Z,6.20
2022-10-02T15:54:55.686Z,6.38
2022-10-02T15:57:48.228Z,9.35
2022-10-02T16:01:02.702Z,11.38
2022-10-02T16:03:43.412Z,5.15
2022-10-02T16:06:36.526Z,4.40
2022-10-02T16:09:42.130Z,5.68
2022-10-02T16:12:40.523Z,4.80
2022-10-02T16:15:41.300Z,5.57
2022-10-02T16:18:24.825Z,6.78
2022-10-02T16:21:27.638Z,5.78
2022-10-02T16:24:36.030Z,4.63
2022-10-02T16:27:13.191Z,3.40
2022-10-02T16:30:18.854Z,4.03
2022-10-02T16:33:23.494Z,4.37
2022-10-02T16:36:33.090Z,6.78
2022-10-02T16:39:39.294Z,5.60
2022-10-02T16:45:05.224Z,10.20
2022-10-02T16:47:52.857Z,19.88
2022-10-02T16:50:52.524Z,11.32
2022-10-02T16:53:32.258Z,8.98
2022-10-02T16:56:16.374Z,6.90
2022-10-02T16:59:01.568Z,14.18
2022-10-02T17:02:17.945Z,5.88
2022-10-02T17:05:14.662Z,7.63
2022-10-02T17:08:18.975Z,5.05
2022-10-02T17:11:25.214Z,2.92
2022-10-02T17:13:59.544Z,5.65
2022-10-02T17:16:48.469Z,6.50
2022-10-02T17:19:46.121Z,7.22
2022-10-02T17:22:45.473Z,7.85
2022-10-02T17:25:30.350Z,13.68
2022-10-02T17:31:00.746Z,16.10
2022-10-02T17:33:40.360Z,18.27
2022-10-02T17:36:31.297Z,16.75
2022-10-02T17:39:19.249Z,14.48
2022-10-02T17:41:55.858Z,21.90
2022-10-02T17:44:47.788Z,4.47
2022-10-02T17:47:37.748Z,17.77
2022-10-02T17:50:21.295Z,10.60
2022-10-02T17:53:26.620Z,14.45
2022-10-02T17:56:28.330Z,28.52
2022-10-02T17:59:21.344Z,16.65
2022-10-02T18:02:14.451Z,20.08
2022-10-02T18:05:24.624Z,17.80
2022-10-02T18:08:21.584Z,18.27
2022-10-02T18:11:31.065Z,17.38
2022-10-02T18:14:20.895Z,15.70
2022-10-02T18:17:11.484Z,20.02
2022-10-02T18:20:16.517Z,24.92
2022-10-02T18:23:16.119Z,23.27
2022-10-02T18:25:53.749Z,29.05
2022-10-02T18:28:33.803Z,41.53
2022-10-02T18:31:51.073Z,43.58
2022-10-02T18:35:03.877Z,29.20
2022-10-02T18:37:59.213Z,35.47
2022-10-02T18:40:46.346Z,39.00
2022-10-02T18:43:36.769Z,31.20
2022-10-02T18:46:21.356Z,19.50
2022-10-02T18:49:16.714Z,21.88
2022-10-02T18:51:54.435Z,17.42
2022-10-02T18:54:43.269Z,15.45
2022-10-02T18:57:39.314Z,14.95
2022-10-02T19:00:20.080Z,13.90
2022-10-02T19:03:03.111Z,11.35
2022-10-02T19:05:42.221Z,12.90
2022-10-02T19:08:57.645Z,16.10
2022-10-02T19:11:34.887Z,23.35
2022-10-02T19:14:45.658Z,14.65
2022-10-02T19:17:23.885Z,10.30
2022-10-02T19:19:56.328Z,9.40
2022-10-02T19:22:26.186Z,11.25
2022-10-02T19:25:07.273Z,11.50
2022-10-02T19:27:49.683Z,12.18
2022-10-02T19:30:27.691Z,11.07
2022-10-02T19:32:59.565Z,9.18
2022-10-02T19:35:44.249Z,8.10
2022-10-02T19:38:30.937Z,10.75
2022-10-02T19:41:10.038Z,33.30
2022-10-02T19:43:54.407Z,55.35
2022-10-02T19:46:40.524Z,37.95
2022-10-02T19:49:23.653Z,18.23
2022-10-02T19:51:53.129Z,23.55
2022-10-02T19:54:37.961Z,18.80
2022-10-02T19:57:15.173Z,11.02
2022-10-02T19:59:52.374Z,7.53
2022-10-02T20:02:28.252Z,11.07
2022-10-02T20:05:01.380Z,8.77
2022-10-02T20:07:31.943Z,8.60
2022-10-02T20:10:09.466Z,7.22
2022-10-02T20:12:43.491Z,8.07
2022-10-02T20:15:47.242Z,10.38
2022-10-02T20:18:15.556Z,11.18
2022-10-02T20:20:47.186Z,10.40
2022-10-02T20:23:25.816Z,11.23
2022-10-02T20:25:58.572Z,7.22
2022-10-02T20:28:55.327Z,7.32
2022-10-02T20:31:34.767Z,8.95
2022-10-02T20:34:16.222Z,6.18
2022-10-02T20:37:09.343Z,9.65
2022-10-02T20:40:06.719Z,8.15
2022-10-02T20:43:05.406Z,6.18
2022-10-02T20:45:44.455Z,6.53
2022-10-02T20:49:08.136Z,5.20
2022-10-02T20:52:00.886Z,3.55
2022-10-02T20:54:45.100Z,5.20
2022-10-02T20:57:59.527Z,5.20
2022-10-02T21:01:07.033Z,4.25
2022-10-02T21:03:55.949Z,5.35
2022-10-02T21:06:50.957Z,9.02
2022-10-02T21:09:33.690Z,3.70
2022-10-02T21:12:40.561Z,4.55
2022-10-02T21:15:36.813Z,6.03
2022-10-02T21:18:35.514Z,6.35
2022-10-02T21:22:03.318Z,5.30
2022-10-02T21:25:08.965Z,4.30
2022-10-02T21:28:04.479Z,3.03
2022-10-02T21:30:54.837Z,5.05
2022-10-02T21:33:34.723Z,4.35
2022-10-02T21:36:10.478Z,5.18
2022-10-02T21:39:12.337Z,4.78
2022-10-02T21:41:58.892Z,5.57
2022-10-02T21:45:04.366Z,6.22
2022-10-02T21:47:57.390Z,6.20
2022-10-02T21:50:54.414Z,4.85
2022-10-02T21:54:04.885Z,5.55
2022-10-02T21:56:46.127Z,4.68
2022-10-02T21:59:51.283Z,6.72
2022-10-02T22:02:43.275Z,5.47
2022-10-02T22:05:31.170Z,3.72
2022-10-02T22:08:35.897Z,4.35
2022-10-02T22:11:12.089Z,9.30
2022-10-02T22:13:43.963Z,22.58
2022-10-02T22:16:29.953Z,6.40
2022-10-02T22:19:37.126Z,4.10
2022-10-02T22:22:17.632Z,7.13
2022-10-02T22:25:00.240Z,6.72
2022-10-02T22:28:05.502Z,7.15
2022-10-02T22:30:48.407Z,8.40
2022-10-02T22:33:55.080Z,2.80
2022-10-02T22:37:03.119Z,3.72
2022-10-02T22:40:02.095Z,3.85
2022-10-02T22:43:05.234Z,4.05
2022-10-02T22:45:58.329Z,5.53
2022-10-02T22:48:35.562Z,4.57
2022-10-02T22:51:41.623Z,4.45
2022-10-02T22:54:42.354Z,4.32
2022-10-02T22:57:40.434Z,4.60
2022-10-02T23:00:31.740Z,4.70
2022-10-02T23:03:19.645Z,4.05
2022-10-02T23:05:54.350Z,4.95
2022-10-02T23:08:39.273Z,3.50
2022-10-02T23:11:15.663Z,4.50
2022-10-02T23:14:06.067Z,4.35
2022-10-02T23:16:49.160Z,4.63
2022-10-02T23:19:49.007Z,3.22
2022-10-02T23:22:20.255Z,4.05
2022-10-02T23:25:14.670Z,3.45
2022-10-02T23:27:50.680Z,3.20
2022-10-02T23:30:20.886Z,3.58
2022-10-02T23:33:13.918Z,4.68
2022-10-02T23:36:02.338Z,2.15
2022-10-02T23:38:48.354Z,3.10
2022-10-02T23:41:48.543Z,2.78
2022-10-02T23:44:32.613Z,2.90
2022-10-02T23:47:28.241Z,3.10
2022-10-02T23:49:57.839Z,3.47
2022-10-02T23:52:53.482Z,3.28
2022-10-02T23:55:41.791Z,3.10
2022-10-02T23:58:44.438Z,6.80
